createdAt,value
2022-10-06T00:02:19.522Z,14.81
2022-10-06T00:04:46.795Z,14.77
2022-10-06T00:07:14.285Z,14.79
2022-10-06T00:09:41.480Z,14.69
2022-10-06T00:12:09.401Z,14.56
2022-10-06T00:14:37.218Z,14.58
2022-10-06T00:17:04.209Z,14.54
2022-10-06T00:19:31.348Z,14.42
2022-10-06T00:21:57.846Z,14.56
2022-10-06T00:24:24.435Z,14.58
2022-10-06T00:26:51.024Z,14.55
2022-10-06T00:29:18.824Z,14.52
2022-10-06T00:31:45.696Z,14.45
2022-10-06T00:34:13.117Z,14.45
2022-10-06T00:36:40.016Z,14.35
2022-10-06T00:39:06.795Z,14.19
2022-10-06T00:41:33.577Z,14.20
2022-10-06T00:44:00.237Z,14.28
2022-10-06T00:46:35.225Z,14.23
2022-10-06T00:49:18.945Z,14.15
2022-10-06T00:51:49.593Z,14.27
2022-10-06T00:54:17.282Z,14.10
2022-10-06T00:56:45.225Z,14.08
2022-10-06T00:59:14.689Z,14.04
2022-10-06T01:01:49.216Z,13.98
2022-10-06T01:04:18.021Z,13.99
2022-10-06T01:06:48.722Z,13.80
2022-10-06T01:09:17.273Z,13.80
2022-10-06T01:11:45.144Z,13.69
2022-10-06T01:14:11.737Z,13.67
2022-10-06T01:16:42.730Z,13.59
2022-10-06T01:19:26.088Z,13.52
2022-10-06T01:21:55.041Z,13.48
2022-10-06T01:24:21.808Z,13.45
2022-10-06T01:26:51.598Z,13.47
2022-10-06T01:29:19.014Z,13.38
2022-10-06T01:31:45.798Z,13.39
2022-10-06T01:34:12.330Z,13.33
2022-10-06T01:36:41.257Z,13.44
2022-10-06T01:39:08.361Z,13.39
2022-10-06T01:41:35.033Z,13.35
2022-10-06T01:44:01.514Z,13.28
2022-10-06T01:46:30.211Z,13.18
2022-10-06T01:48:56.941Z,13.05
2022-10-06T01:51:23.503Z,13.26
2022-10-06T01:53:50.063Z,13.26
2022-10-06T01:56:16.716Z,13.24
2022-10-06T01:58:43.327Z,13.28
2022-10-06T02:01:10.248Z,13.15
2022-10-06T02:03:39.085Z,13.22
2022-10-06T02:06:06.626Z,13.20
2022-10-06T02:08:33.341Z,13.09
2022-10-06T02:11:09.175Z,13.15
2022-10-06T02:13:36.628Z,13.05
2022-10-06T02:16:04.050Z,13.08
2022-10-06T02:18:30.895Z,13.19
2022-10-06T02:20:57.863Z,13.22
2022-10-06T02:23:24.578Z,13.13
2022-10-06T02:26:01.640Z,13.09
2022-10-06T02:28:28.915Z,13.09
2022-10-06T02:31:01.581Z,13.05
2022-10-06T02:33:28.219Z,13.12
2022-10-06T02:35:56.196Z,13.11
2022-10-06T02:38:24.231Z,13.14
2022-10-06T02:40:52.027Z,13.08
2022-10-06T02:43:18.855Z,12.93
2022-10-06T02:45:53.820Z,12.91
2022-10-06T02:48:20.338Z,13.04
2022-10-06T02:51:00.663Z,12.92
2022-10-06T02:53:28.505Z,12.91
2022-10-06T02:55:59.346Z,12.89
2022-10-06T02:58:26.715Z,12.92
2022-10-06T03:00:53.463Z,12.82
2022-10-06T03:03:20.137Z,12.87
2022-10-06T03:05:46.837Z,12.80
2022-10-06T03:08:13.457Z,12.81
2022-10-06T03:10:39.985Z,12.76
2022-10-06T03:13:06.780Z,12.68
2022-10-06T03:15:33.314Z,12.82
2022-10-06T03:17:59.904Z,12.74
2022-10-06T03:20:26.477Z,12.66
2022-10-06T03:22:54.547Z,12.53
2022-10-06T03:25:21.165Z,12.53
2022-10-06T03:27:47.695Z,12.63
2022-10-06T03:30:15.198Z,12.61
2022-10-06T03:32:41.890Z,12.66
2022-10-06T03:35:08.878Z,12.43
2022-10-06T03:37:35.720Z,12.51
2022-10-06T03:40:02.225Z,12.42
2022-10-06T03:42:28.877Z,12.58
2022-10-06T03:44:55.375Z,12.47
2022-10-06T03:47:22.070Z,12.33
2022-10-06T03:49:49.085Z,12.46
2022-10-06T03:52:16.003Z,12.37
2022-10-06T03:54:42.725Z,12.36
2022-10-06T03:57:09.614Z,12.19
2022-10-06T03:59:36.143Z,12.19
2022-10-06T04:02:03.524Z,12.27
2022-10-06T04:04:30.132Z,12.04
2022-10-06T04:06:57.025Z,12.05
2022-10-06T04:09:23.610Z,11.97
2022-10-06T04:11:51.755Z,12.06
2022-10-06T04:14:18.424Z,12.10
2022-10-06T04:16:49.885Z,12.06
2022-10-06T04:19:17.890Z,12.03
2022-10-06T04:21:46.892Z,12.08
2022-10-06T04:24:13.974Z,11.98
2022-10-06T04:26:45.449Z,11.96
2022-10-06T04:29:12.795Z,11.99
2022-10-06T04:31:41.217Z,11.87
2022-10-06T04:34:10.240Z,11.89
2022-10-06T04:36:40.214Z,11.93
2022-10-06T04:39:10.651Z,11.82
2022-10-06T04:41:39.928Z,11.93
2022-10-06T04:44:06.995Z,11.82
2022-10-06T04:46:43.420Z,11.77
2022-10-06T04:49:18.601Z,11.89
2022-10-06T04:51:46.615Z,11.72
2022-10-06T04:54:13.155Z,11.76
2022-10-06T04:56:39.786Z,11.77
2022-10-06T04:59:06.498Z,11.74
2022-10-06T05:01:36.541Z,11.71
2022-10-06T05:04:06.043Z,11.73
2022-10-06T05:06:35.924Z,11.70
2022-10-06T05:09:07.882Z,11.82
2022-10-06T05:11:34.745Z,11.74
2022-10-06T05:14:01.382Z,11.53
2022-10-06T05:16:30.152Z,11.58
2022-10-06T05:18:57.831Z,11.63
2022-10-06T05:21:27.670Z,11.73
2022-10-06T05:23:54.366Z,11.63
2022-10-06T05:26:26.716Z,11.60
2022-10-06T05:28:53.682Z,11.59
2022-10-06T05:31:26.844Z,11.52
2022-10-06T05:33:54.783Z,11.70
2022-10-06T05:36:26.794Z,11.50
2022-10-06T05:38:53.801Z,11.41
2022-10-06T05:41:31.456Z,11.49
2022-10-06T05:43:59.015Z,11.53
2022-10-06T05:46:28.565Z,11.53
2022-10-06T05:48:59.477Z,11.62
2022-10-06T05:51:31.011Z,11.58
2022-10-06T05:54:01.335Z,11.55
2022-10-06T05:56:28.808Z,11.58
2022-10-06T05:58:57.287Z,11.50
2022-10-06T06:01:31.946Z,11.59
2022-10-06T06:04:02.663Z,11.67
2022-10-06T06:06:37.636Z,11.54
2022-10-06T06:09:07.538Z,11.54
2022-10-06T06:11:36.027Z,11.51
2022-10-06T06:14:05.682Z,11.57
2022-10-06T06:16:33.006Z,11.59
2022-10-06T06:19:00.663Z,11.57
2022-10-06T06:21:27.945Z,11.62
2022-10-06T06:23:54.554Z,11.72
2022-10-06T06:26:29.256Z,11.79
2022-10-06T06:29:04.106Z,11.73
2022-10-06T06:31:43.812Z,11.91
2022-10-06T06:34:12.062Z,11.93
2022-10-06T06:36:41.106Z,11.99
2022-10-06T06:39:12.989Z,12.11
2022-10-06T06:41:42.299Z,11.96
2022-10-06T06:44:11.715Z,12.12
2022-10-06T06:46:39.792Z,12.24
2022-10-06T06:49:07.631Z,12.40
2022-10-06T06:51:40.346Z,12.54
2022-10-06T06:54:08.449Z,12.41
2022-10-06T06:56:35.467Z,12.53
2022-10-06T06:59:08.925Z,12.43
2022-10-06T07:01:35.608Z,12.62
2022-10-06T07:04:02.394Z,12.63
2022-10-06T07:06:30.779Z,12.60
2022-10-06T07:08:59.504Z,12.57
2022-10-06T07:11:31.684Z,12.77
2022-10-06T07:14:03.774Z,12.72
2022-10-06T07:16:50.082Z,12.66
2022-10-06T07:19:36.901Z,12.77
2022-10-06T07:22:32.796Z,12.95
2022-10-06T07:25:07.649Z,13.05
2022-10-06T07:27:56.090Z,13.11
2022-10-06T07:30:26.578Z,13.21
2022-10-06T07:32:53.966Z,13.35
2022-10-06T07:35:22.068Z,13.32
2022-10-06T07:37:50.204Z,13.48
2022-10-06T07:40:17.307Z,13.60
2022-10-06T07:42:52.455Z,13.58
2022-10-06T07:45:41.188Z,13.51
2022-10-06T07:48:14.754Z,13.78
2022-10-06T07:50:43.814Z,13.61
2022-10-06T07:53:10.353Z,13.78
2022-10-06T07:55:40.662Z,13.87
2022-10-06T07:58:11.864Z,13.94
2022-10-06T08:00:38.493Z,14.14
2022-10-06T08:03:05.135Z,14.18
2022-10-06T08:05:32.340Z,14.26
2022-10-06T08:07:58.910Z,14.43
2022-10-06T08:10:25.723Z,14.60
2022-10-06T08:12:52.366Z,14.65
2022-10-06T08:15:19.503Z,14.56
2022-10-06T08:17:46.295Z,14.45
2022-10-06T08:20:13.635Z,14.36
2022-10-06T08:22:40.854Z,14.31
2022-10-06T08:25:09.584Z,14.62
2022-10-06T08:27:37.833Z,14.79
2022-10-06T08:30:07.866Z,14.65
2022-10-06T08:32:34.661Z,14.92
2022-10-06T08:35:01.535Z,14.99
2022-10-06T08:37:28.084Z,14.93
2022-10-06T08:39:55.443Z,14.91
2022-10-06T08:42:43.367Z,14.56
2022-10-06T08:45:38.722Z,14.75
2022-10-06T08:48:05.686Z,14.68
2022-10-06T08:50:47.529Z,14.82
2022-10-06T08:53:26.188Z,14.85
2022-10-06T08:56:00.692Z,15.03
2022-10-06T08:58:45.927Z,15.10
2022-10-06T09:01:19.999Z,15.11
2022-10-06T09:03:49.210Z,15.25
2022-10-06T09:06:24.299Z,15.20
2022-10-06T09:08:57.534Z,15.33
2022-10-06T09:11:35.836Z,15.25
2022-10-06T09:14:14.857Z,15.46
2022-10-06T09:16:46.624Z,15.61
2022-10-06T09:19:33.954Z,15.74
2022-10-06T09:22:04.732Z,15.55
2022-10-06T09:24:36.295Z,15.47
2022-10-06T09:27:16.457Z,15.93
2022-10-06T09:29:43.162Z,15.96
2022-10-06T09:32:11.071Z,15.92
2022-10-06T09:34:43.019Z,15.98
2022-10-06T09:37:13.792Z,16.11
2022-10-06T09:39:43.133Z,16.14
2022-10-06T09:42:19.142Z,15.90
2022-10-06T09:44:51.582Z,16.09
2022-10-06T09:47:32.026Z,16.07
2022-10-06T09:50:04.627Z,16.26
2022-10-06T09:52:31.219Z,16.06
2022-10-06T09:55:15.593Z,16.25
2022-10-06T09:58:02.928Z,16.63
2022-10-06T10:00:36.092Z,16.52
2022-10-06T10:03:08.118Z,16.47
2022-10-06T10:05:38.446Z,16.42
2022-10-06T10:08:13.929Z,16.38
2022-10-06T10:10:41.301Z,16.52
2022-10-06T10:13:26.151Z,16.66
2022-10-06T10:16:02.151Z,16.63
2022-10-06T10:18:31.714Z,16.75
2022-10-06T10:20:59.826Z,16.69
2022-10-06T10:23:33.436Z,16.24
2022-10-06T10:26:14.109Z,16.48
2022-10-06T10:28:57.279Z,16.43
2022-10-06T10:31:26.699Z,16.66
2022-10-06T10:34:12.899Z,16.54
2022-10-06T10:36:54.546Z,16.54
2022-10-06T10:39:37.012Z,16.51
2022-10-06T10:42:13.038Z,16.46
2022-10-06T10:44:47.571Z,16.36
2022-10-06T10:47:22.301Z,16.49
2022-10-06T10:50:23.599Z,16.69
2022-10-06T10:52:54.047Z,16.53
2022-10-06T10:55:45.061Z,16.52
2022-10-06T10:58:31.973Z,16.86
2022-10-06T11:01:08.729Z,16.80
2022-10-06T11:03:35.369Z,16.39
2022-10-06T11:06:04.561Z,16.60
2022-10-06T11:08:53.722Z,16.68
2022-10-06T11:11:49.844Z,16.98
2022-10-06T11:14:54.167Z,16.77
2022-10-06T11:17:44.407Z,16.81
2022-10-06T11:20:46.293Z,16.37
2022-10-06T11:23:28.794Z,16.17
2022-10-06T11:26:15.118Z,16.08
2022-10-06T11:28:47.884Z,16.03
2022-10-06T11:31:32.994Z,16.16
2022-10-06T11:34:04.959Z,16.24
2022-10-06T11:36:53.011Z,16.01
2022-10-06T11:39:37.865Z,16.11
2022-10-06T11:42:13.366Z,16.39
2022-10-06T11:44:47.600Z,16.43
2022-10-06T11:47:35.385Z,16.69
2022-10-06T11:50:03.040Z,16.75
2022-10-06T11:52:29.475Z,16.88
2022-10-06T11:55:07.711Z,17.12
2022-10-06T11:57:35.456Z,16.92
2022-10-06T12:00:04.711Z,16.64
2022-10-06T12:02:39.308Z,16.83
2022-10-06T12:05:54.813Z,16.68
2022-10-06T12:08:07.372Z,16.42
2022-10-06T12:10:35.189Z,16.81
2022-10-06T12:13:40.089Z,16.77
2022-10-06T12:19:42.214Z,16.79
2022-10-06T12:22:31.052Z,16.66
2022-10-06T12:25:02.251Z,16.25
2022-10-06T12:27:32.050Z,16.46
2022-10-06T12:30:22.667Z,16.66
2022-10-06T12:32:53.339Z,16.64
2022-10-06T12:35:27.853Z,16.67
2022-10-06T12:37:58.273Z,16.74
2022-10-06T12:40:49.293Z,16.77
2022-10-06T12:43:18.916Z,16.78
2022-10-06T12:45:57.485Z,16.75
2022-10-06T12:48:31.323Z,16.84
2022-10-06T12:54:10.157Z,16.45
2022-10-06T12:56:42.922Z,16.61
2022-10-06T12:59:29.263Z,16.57
2022-10-06T13:02:04.827Z,16.60
2022-10-06T13:04:40.609Z,16.86
2022-10-06T13:07:16.598Z,16.84
2022-10-06T13:09:44.152Z,16.55
2022-10-06T13:12:27.407Z,16.67
2022-10-06T13:18:07.783Z,16.65
2022-10-06T13:20:40.195Z,16.75
2022-10-06T13:23:21.605Z,16.62
2022-10-06T13:25:54.411Z,16.50
2022-10-06T13:28:26.830Z,16.52
2022-10-06T13:31:02.894Z,16.37
2022-10-06T13:33:40.804Z,16.25
2022-10-06T13:36:08.989Z,16.39
2022-10-06T13:38:36.937Z,16.33
2022-10-06T13:41:11.972Z,16.22
2022-10-06T13:43:42.123Z,16.24
2022-10-06T13:46:17.013Z,16.38
2022-10-06T13:48:47.869Z,16.33
2022-10-06T13:51:18.611Z,16.44
2022-10-06T13:53:48.043Z,16.47
2022-10-06T13:56:40.850Z,16.09
2022-10-06T13:59:31.972Z,15.98
2022-10-06T14:02:14.066Z,16.02
2022-10-06T14:04:40.820Z,15.75
2022-10-06T14:07:13.146Z,15.76
2022-10-06T14:09:41.257Z,15.74
2022-10-06T14:12:13.663Z,15.76
2022-10-06T14:14:47.420Z,15.92
2022-10-06T14:17:25.768Z,16.00
2022-10-06T14:19:52.511Z,16.08
2022-10-06T14:22:38.327Z,16.10
2022-10-06T14:25:12.223Z,15.99
2022-10-06T14:27:38.810Z,16.11
2022-10-06T14:30:06.127Z,15.79
2022-10-06T14:32:32.639Z,15.87
2022-10-06T14:34:59.227Z,15.84
2022-10-06T14:37:26.253Z,15.87
2022-10-06T14:39:54.729Z,15.73
2022-10-06T14:42:24.520Z,15.78
2022-10-06T14:44:51.109Z,15.79
2022-10-06T14:47:17.711Z,15.86
2022-10-06T14:49:45.435Z,15.94
2022-10-06T14:52:12.265Z,15.83
2022-10-06T14:54:39.422Z,15.84
2022-10-06T14:57:06.091Z,15.64
2022-10-06T14:59:32.773Z,15.67
2022-10-06T15:01:59.331Z,15.52
2022-10-06T15:04:27.913Z,15.37
2022-10-06T15:07:13.034Z,15.31
2022-10-06T15:09:39.592Z,15.56
2022-10-06T15:12:06.125Z,15.34
2022-10-06T15:14:34.411Z,15.38
2022-10-06T15:17:00.913Z,15.48
2022-10-06T15:19:27.776Z,15.46
2022-10-06T15:21:54.579Z,15.42
2022-10-06T15:24:21.246Z,15.34
2022-10-06T15:27:06.946Z,15.27
2022-10-06T15:29:35.293Z,15.29
2022-10-06T15:32:03.191Z,15.06
2022-10-06T15:34:33.518Z,15.08
2022-10-06T15:37:00.648Z,15.30
2022-10-06T15:39:30.059Z,15.15
2022-10-06T15:41:57.481Z,15.02
2022-10-06T15:44:24.201Z,15.11
2022-10-06T15:46:59.528Z,14.96
2022-10-06T15:49:29.649Z,14.81
2022-10-06T15:52:03.561Z,14.83
2022-10-06T15:54:39.762Z,14.76
2022-10-06T15:57:10.007Z,14.51
2022-10-06T15:59:37.439Z,14.53
2022-10-06T16:02:07.627Z,14.42
2022-10-06T16:04:38.784Z,14.55
2022-10-06T16:07:07.223Z,14.45
2022-10-06T16:09:42.995Z,14.39
2022-10-06T16:12:11.996Z,14.51
2022-10-06T16:14:38.896Z,14.46
2022-10-06T16:17:06.914Z,14.41
2022-10-06T16:19:34.011Z,14.26
2022-10-06T16:22:01.144Z,14.29
2022-10-06T16:24:28.252Z,13.95
2022-10-06T16:26:56.293Z,14.00
2022-10-06T16:29:22.962Z,14.02
2022-10-06T16:31:49.682Z,13.94
2022-10-06T16:34:16.623Z,13.83
2022-10-06T16:36:58.814Z,13.59
2022-10-06T16:39:25.621Z,13.69
2022-10-06T16:41:52.367Z,13.84
2022-10-06T16:44:18.943Z,13.83
2022-10-06T16:46:45.923Z,13.60
2022-10-06T16:49:12.738Z,13.37
2022-10-06T16:51:42.063Z,13.41
2022-10-06T16:54:11.010Z,13.29
2022-10-06T16:56:44.445Z,13.26
2022-10-06T16:59:16.678Z,13.15
2022-10-06T17:01:43.720Z,13.07
2022-10-06T17:04:24.019Z,13.11
2022-10-06T17:06:53.154Z,13.00
2022-10-06T17:09:22.106Z,12.95
2022-10-06T17:11:51.247Z,12.85
2022-10-06T17:14:21.948Z,12.82
2022-10-06T17:16:51.164Z,12.63
2022-10-06T17:19:19.625Z,12.38
2022-10-06T17:21:48.749Z,12.48
2022-10-06T17:24:18.220Z,12.30
2022-10-06T17:26:50.040Z,12.13
2022-10-06T17:29:23.189Z,12.25
2022-10-06T17:31:53.408Z,12.23
2022-10-06T17:34:23.686Z,12.35
2022-10-06T17:36:53.625Z,12.25
2022-10-06T17:39:22.977Z,11.89
2022-10-06T17:41:52.515Z,11.98
2022-10-06T17:44:22.777Z,11.88
2022-10-06T17:46:52.582Z,11.78
2022-10-06T17:49:20.913Z,11.82
2022-10-06T17:51:48.253Z,11.70
2022-10-06T17:54:19.204Z,11.76
2022-10-06T17:56:51.699Z,11.64
2022-10-06T17:59:22.136Z,11.76
2022-10-06T18:01:49.288Z,11.77
2022-10-06T18:04:16.221Z,11.83
2022-10-06T18:06:44.592Z,11.51
2022-10-06T18:09:11.910Z,11.07
2022-10-06T18:11:41.853Z,11.18
2022-10-06T18:14:10.023Z,11.50
2022-10-06T18:16:39.836Z,11.63
2022-10-06T18:19:11.960Z,11.09
2022-10-06T18:21:39.695Z,10.93
2022-10-06T18:24:10.430Z,10.89
2022-10-06T18:26:38.528Z,11.09
2022-10-06T18:29:07.171Z,10.82
2022-10-06T18:31:34.139Z,10.91
2022-10-06T18:36:48.186Z,10.77
2022-10-06T18:39:14.797Z,10.61
2022-10-06T18:41:41.344Z,10.60
2022-10-06T18:44:08.927Z,10.55
2022-10-06T18:46:55.131Z,10.58
2022-10-06T18:49:24.255Z,10.39
2022-10-06T18:51:57.246Z,10.32
2022-10-06T18:54:27.321Z,9.86
2022-10-06T18:56:55.189Z,9.75
2022-10-06T18:59:27.009Z,9.72
2022-10-06T19:01:56.071Z,9.62
2022-10-06T19:04:24.037Z,9.66
2022-10-06T19:06:53.050Z,10.01
2022-10-06T19:09:22.860Z,9.98
2022-10-06T19:11:58.262Z,10.08
2022-10-06T19:14:25.550Z,9.86
2022-10-06T19:16:59.119Z,10.06
2022-10-06T19:19:28.026Z,9.99
2022-10-06T19:22:00.103Z,9.61
2022-10-06T19:24:38.889Z,9.44
2022-10-06T19:27:11.429Z,9.37
2022-10-06T19:29:45.718Z,9.70
2022-10-06T19:32:16.502Z,9.65
2022-10-06T19:34:43.999Z,9.44
2022-10-06T19:37:11.204Z,9.51
2022-10-06T19:39:42.963Z,9.38
2022-10-06T19:42:30.436Z,9.24
2022-10-06T19:44:57.330Z,9.31
2022-10-06T19:47:24.359Z,9.20
2022-10-06T19:49:57.891Z,9.24
2022-10-06T19:52:25.875Z,9.04
2022-10-06T19:54:52.454Z,9.18
2022-10-06T19:57:19.161Z,9.20
2022-10-06T19:59:46.471Z,9.29
2022-10-06T20:02:13.198Z,9.23
2022-10-06T20:04:40.080Z,9.10
2022-10-06T20:07:06.839Z,8.98
2022-10-06T20:09:33.941Z,9.10
2022-10-06T20:12:01.878Z,8.95
2022-10-06T20:14:28.894Z,9.03
2022-10-06T20:16:57.733Z,9.13
2022-10-06T20:19:25.637Z,9.20
2022-10-06T20:21:55.913Z,9.18
2022-10-06T20:24:24.870Z,9.05
2022-10-06T20:26:53.153Z,8.96
2022-10-06T20:29:23.413Z,8.85
2022-10-06T20:31:53.233Z,8.79
2022-10-06T20:34:23.900Z,9.00
2022-10-06T20:36:55.524Z,8.87
2022-10-06T20:39:43.201Z,8.72
2022-10-06T20:42:14.901Z,8.76
2022-10-06T20:44:42.331Z,8.84
2022-10-06T20:47:10.622Z,8.95
2022-10-06T20:49:37.329Z,8.83
2022-10-06T20:52:05.661Z,8.79
2022-10-06T20:54:35.219Z,8.87
2022-10-06T20:57:04.786Z,9.05
2022-10-06T20:59:32.254Z,9.03
2022-10-06T21:02:02.503Z,9.02
2022-10-06T21:04:29.645Z,9.02
2022-10-06T21:06:56.432Z,8.94
2022-10-06T21:09:24.837Z,8.89
2022-10-06T21:11:52.173Z,8.99
2022-10-06T21:14:19.070Z,8.95
2022-10-06T21:16:47.617Z,8.94
2022-10-06T21:19:16.925Z,8.74
2022-10-06T21:21:46.189Z,8.59
2022-10-06T21:24:13.270Z,8.76
2022-10-06T21:26:42.823Z,8.43
2022-10-06T21:29:11.866Z,8.32
2022-10-06T21:31:38.874Z,8.35
2022-10-06T21:34:05.705Z,8.44
2022-10-06T21:36:32.598Z,8.45
2022-10-06T21:39:06.936Z,8.53
2022-10-06T21:41:39.151Z,8.47
2022-10-06T21:44:07.301Z,8.31
2022-10-06T21:46:50.381Z,8.22
2022-10-06T21:49:19.457Z,8.42
2022-10-06T21:51:48.933Z,8.34
2022-10-06T21:54:16.178Z,8.37
2022-10-06T21:56:43.351Z,8.59
2022-10-06T21:59:10.753Z,8.36
2022-10-06T22:01:40.706Z,8.42
2022-10-06T22:04:08.058Z,8.39
2022-10-06T22:06:37.084Z,8.36
2022-10-06T22:09:06.616Z,8.36
2022-10-06T22:11:36.219Z,8.47
2022-10-06T22:14:05.433Z,8.38
2022-10-06T22:16:34.404Z,8.29
2022-10-06T22:19:03.092Z,8.13
2022-10-06T22:21:32.445Z,8.23
2022-10-06T22:24:04.922Z,8.00
2022-10-06T22:26:33.875Z,8.23
2022-10-06T22:29:01.406Z,8.08
2022-10-06T22:31:29.815Z,8.29
2022-10-06T22:34:02.349Z,8.12
2022-10-06T22:36:29.006Z,8.03
2022-10-06T22:38:56.856Z,8.06
2022-10-06T22:41:24.171Z,8.02
2022-10-06T22:43:58.057Z,7.98
2022-10-06T22:46:26.573Z,8.15
2022-10-06T22:48:53.973Z,8.05
2022-10-06T22:51:20.797Z,7.94
2022-10-06T22:53:47.978Z,8.14
2022-10-06T22:56:14.794Z,7.96
2022-10-06T22:58:42.834Z,7.98
2022-10-06T23:01:14.580Z,7.99
2022-10-06T23:03:42.238Z,7.99
2022-10-06T23:06:12.848Z,7.84
2022-10-06T23:08:40.657Z,8.13
2022-10-06T23:11:14.604Z,8.02
2022-10-06T23:13:43.359Z,8.44
2022-10-06T23:16:15.638Z,8.45
2022-10-06T23:18:43.948Z,8.09
2022-10-06T23:21:28.760Z,7.82
2022-10-06T23:23:58.967Z,7.76
2022-10-06T23:26:26.294Z,8.24
2022-10-06T23:28:56.184Z,7.81
2022-10-06T23:31:23.550Z,7.87
2022-10-06T23:33:50.368Z,7.81
2022-10-06T23:36:18.140Z,7.94
2022-10-06T23:38:45.882Z,7.71
2022-10-06T23:41:13.646Z,7.70
2022-10-06T23:43:41.028Z,7.86
2022-10-06T23:46:08.213Z,7.78
2022-10-06T23:48:35.006Z,7.79
2022-10-06T23:51:10.590Z,7.85
2022-10-06T23:53:37.757Z,7.92
2022-10-06T23:56:05.456Z,8.05
2022-10-06T23:58:32.500Z,8.11
